Time;durP1;ratioP1;P1;durP2;ratioP2;P2;SDS_P1;SDS_P2;PMS_P1;PMS_P2;Temp;Humidity;BMP_temperature;BMP_pressure;BME280_temperature;BME280_humidity;BME280_pressure;Samples;Min_cycle;Max_cycle;Signal;HPM_P1;HPM_P2
2022/05/27 00:01:29;;;;;;;3.35;1.73;;;18.10;99.90;;;;;;5076728;28;20470;-70
2022/05/27 00:03:58;;;;;;;3.08;1.88;;;17.90;99.90;;;;;;5072619;28;20428;-70
2022/05/27 00:06:24;;;;;;;4.38;1.70;;;17.90;99.90;;;;;;5069823;28;20120;-70
2022/05/27 00:08:50;;;;;;;5.50;1.75;;;18.00;99.90;;;;;;5062894;28;20155;-70
2022/05/27 00:11:16;;;;;;;2.40;1.42;;;17.90;99.90;;;;;;5071583;28;20017;-70
2022/05/27 00:13:42;;;;;;;6.07;1.60;;;18.00;99.90;;;;;;5064778;28;20044;-70
2022/05/27 00:16:08;;;;;;;5.32;1.80;;;18.00;99.90;;;;;;5064745;28;20036;-70
2022/05/27 00:18:34;;;;;;;3.78;1.50;;;18.00;99.90;;;;;;5064141;28;20040;-70
2022/05/27 00:21:00;;;;;;;5.90;1.55;;;18.10;99.90;;;;;;5072877;28;20033;-70
2022/05/27 00:23:26;;;;;;;2.65;1.45;;;18.10;99.90;;;;;;5070097;28;20504;-70
2022/05/27 00:25:52;;;;;;;2.47;1.67;;;18.00;99.90;;;;;;5066015;28;20032;-70
2022/05/27 00:28:18;;;;;;;5.97;1.50;;;18.00;99.90;;;;;;5071146;28;20388;-70
2022/05/27 00:30:44;;;;;;;5.75;1.77;;;18.00;99.90;;;;;;5071843;28;20397;-70
2022/05/27 00:33:10;;;;;;;4.95;1.70;;;18.00;99.90;;;;;;5065044;28;20025;-71
2022/05/27 00:35:35;;;;;;;3.72;1.70;;;18.00;99.90;;;;;;5067799;28;20468;-71
2022/05/27 00:38:02;;;;;;;5.82;1.98;;;18.00;99.90;;;;;;5067181;28;20032;-70
2022/05/27 00:40:41;;;;;;;4.72;1.58;;;18.00;99.90;;;;;;5070117;28;20035;-70
2022/05/27 00:43:07;;;;;;;6.75;1.58;;;18.00;99.90;;;;;;5073994;28;20525;-70
2022/05/27 00:45:35;;;;;;;7.15;1.90;;;18.00;99.90;;;;;;5065787;28;20039;-70
2022/05/27 00:48:05;;;;;;;5.70;1.70;;;17.90;99.90;;;;;;5065433;28;20103;-70
2022/05/27 00:50:36;;;;;;;2.42;1.15;;;18.00;99.90;;;;;;5073327;28;20508;-70
2022/05/27 00:53:03;;;;;;;4.53;1.85;;;17.90;99.90;;;;;;5076585;28;20116;-70
2022/05/27 00:55:34;;;;;;;5.20;1.67;;;18.00;99.90;;;;;;5076535;28;20058;-70
2022/05/27 00:58:08;;;;;;;5.47;1.77;;;17.90;99.90;;;;;;5076012;28;20040;-70
2022/05/27 01:00:35;;;;;;;7.18;1.60;;;17.90;99.90;;;;;;5070216;28;20100;-70
2022/05/27 01:03:02;;;;;;;5.05;1.58;;;17.90;99.90;;;;;;5070832;28;20059;-70
2022/05/27 01:05:29;;;;;;;3.35;1.45;;;18.00;99.90;;;;;;5071019;28;20108;-70
2022/05/27 01:07:58;;;;;;;4.30;1.60;;;18.00;99.90;;;;;;5070150;28;20033;-70
2022/05/27 01:10:26;;;;;;;5.78;1.75;;;17.90;99.90;;;;;;5073481;28;20162;-70
2022/05/27 01:13:23;;;;;;;6.97;1.80;;;17.90;99.90;;;;;;5074329;28;20028;-70
2022/05/27 01:16:16;;;;;;;4.60;1.67;;;17.90;99.90;;;;;;5069923;28;20090;-70
2022/05/27 01:22:02;;;;;;;5.63;1.80;;;17.90;99.90;;;;;;5067453;28;20067;-70
2022/05/27 01:24:42;;;;;;;6.40;2.35;;;17.90;99.90;;;;;;5059533;28;20045;-70
2022/05/27 01:27:39;;;;;;;7.78;2.53;;;17.80;99.90;;;;;;5069397;28;20068;-70
2022/05/27 01:30:35;;;;;;;5.65;1.67;;;17.80;99.90;;;;;;5071482;28;20120;-70
2022/05/27 01:33:25;;;;;;;8.10;1.90;;;17.70;99.90;;;;;;5074490;28;20036;-70
2022/05/27 01:36:09;;;;;;;4.60;1.73;;;17.70;99.90;;;;;;5070262;28;20025;-70
2022/05/27 01:39:05;;;;;;;6.45;2.45;;;17.60;99.90;;;;;;5069402;28;20036;-70
2022/05/27 01:41:46;;;;;;;6.60;2.10;;;17.70;99.90;;;;;;5069914;28;20033;-70
2022/05/27 01:44:21;;;;;;;6.70;2.13;;;17.70;99.90;;;;;;5075420;28;20033;-70
2022/05/27 01:46:49;;;;;;;5.38;2.30;;;17.60;99.90;;;;;;5074526;28;20036;-70
2022/05/27 01:49:30;;;;;;;9.52;2.63;;;17.70;99.90;;;;;;5076080;28;20028;-70
2022/05/27 01:52:26;;;;;;;9.82;2.42;;;17.70;99.90;;;;;;5068693;28;20358;-70
2022/05/27 01:55:05;;;;;;;5.20;2.35;;;17.70;99.90;;;;;;5068729;28;20024;-70
2022/05/27 01:57:38;;;;;;;5.00;2.30;;;17.70;99.90;;;;;;5073632;28;20386;-70
2022/05/27 02:00:10;;;;;;;7.53;2.92;;;17.70;99.90;;;;;;5069062;28;20381;-70
2022/05/27 02:02:41;;;;;;;5.22;2.28;;;17.70;99.90;;;;;;5073315;28;20033;-70
2022/05/27 02:05:20;;;;;;;9.52;2.58;;;17.80;99.90;;;;;;5078974;28;20032;-70
2022/05/27 02:07:54;;;;;;;6.72;2.70;;;17.70;99.90;;;;;;5074439;28;20075;-70
2022/05/27 02:10:59;;;;;;;9.27;3.58;;;17.60;99.90;;;;;;5068043;28;20021;-70
2022/05/27 02:13:32;;;;;;;5.20;2.65;;;17.60;99.90;;;;;;5051776;28;20033;-70
2022/05/27 02:15:58;;;;;;;12.30;3.25;;;17.60;99.90;;;;;;5052748;28;20116;-70
2022/05/27 02:18:39;;;;;;;9.02;2.60;;;17.50;99.90;;;;;;5060554;28;20488;-70
2022/05/27 02:21:16;;;;;;;7.20;3.00;;;17.50;99.90;;;;;;5074143;28;20385;-70
2022/05/27 02:23:50;;;;;;;9.55;3.05;;;17.50;99.90;;;;;;5070459;28;20104;-70
2022/05/27 02:26:21;;;;;;;7.07;2.95;;;17.60;99.90;;;;;;5067949;28;20036;-70
2022/05/27 02:28:52;;;;;;;5.88;2.83;;;17.60;99.90;;;;;;5074931;28;20025;-70
2022/05/27 02:31:24;;;;;;;6.85;3.08;;;17.50;99.90;;;;;;5067874;28;20024;-70
2022/05/27 02:37:09;;;;;;;9.48;3.20;;;17.50;99.90;;;;;;5067061;28;20044;-72
2022/05/27 02:39:36;;;;;;;11.95;3.65;;;17.50;99.90;;;;;;5057680;28;20059;-71
2022/05/27 02:42:20;;;;;;;9.52;3.17;;;17.50;99.90;;;;;;5084629;28;20021;-71
2022/05/27 02:45:11;;;;;;;10.10;3.67;;;17.60;99.90;;;;;;5074114;28;20040;-72
2022/05/27 02:47:58;;;;;;;8.68;3.70;;;17.50;99.90;;;;;;5054311;28;20496;-71
2022/05/27 02:50:38;;;;;;;13.43;3.78;;;17.50;99.90;;;;;;5068090;28;20028;-73
2022/05/27 02:53:23;;;;;;;10.25;4.45;;;17.40;99.90;;;;;;5073159;28;20036;-72
2022/05/27 02:56:07;;;;;;;9.45;3.85;;;17.50;99.90;;;;;;5074828;28;20032;-72
2022/05/27 02:58:33;;;;;;;7.95;4.13;;;17.40;99.90;;;;;;5067968;28;20056;-72
2022/05/27 03:00:59;;;;;;;10.68;4.13;;;17.50;99.90;;;;;;5075505;28;20028;-72
2022/05/27 03:03:25;;;;;;;11.32;4.30;;;17.40;99.90;;;;;;5070974;28;20043;-71
2022/05/27 03:06:02;;;;;;;11.32;4.43;;;17.40;99.90;;;;;;5074869;28;20032;-71
2022/05/27 03:08:51;;;;;;;9.75;3.97;;;17.40;99.90;;;;;;5073992;28;20029;-71
2022/05/27 03:11:35;;;;;;;15.95;4.90;;;17.40;99.90;;;;;;5073645;28;20099;-72
2022/05/27 03:14:19;;;;;;;10.93;4.05;;;17.40;99.90;;;;;;5074466;28;20100;-72
2022/05/27 03:17:06;;;;;;;9.88;4.13;;;17.30;99.90;;;;;;5075840;28;20020;-72
2022/05/27 03:20:02;;;;;;;10.38;4.07;;;17.10;99.90;;;;;;5073477;28;20097;-72
2022/05/27 03:22:47;;;;;;;11.63;4.30;;;17.10;99.90;;;;;;5072434;28;20035;-72
2022/05/27 03:25:27;;;;;;;12.38;4.43;;;17.10;99.90;;;;;;5076215;28;20028;-72
2022/05/27 03:28:03;;;;;;;10.63;4.80;;;17.20;99.90;;;;;;5076979;28;20060;-71
2022/05/27 03:30:37;;;;;;;10.27;4.00;;;17.20;99.90;;;;;;5076743;28;20020;-71
2022/05/27 03:33:15;;;;;;;13.27;4.50;;;17.20;99.90;;;;;;5077365;28;20059;-71
2022/05/27 03:35:50;;;;;;;13.15;5.40;;;17.20;99.90;;;;;;5077618;28;20108;-72
2022/05/27 03:38:24;;;;;;;13.77;4.78;;;17.10;99.90;;;;;;5074065;28;20040;-72
2022/05/27 03:41:09;;;;;;;12.93;4.93;;;17.20;99.90;;;;;;5077428;28;20052;-72
2022/05/27 03:43:38;;;;;;;13.45;4.95;;;17.20;99.90;;;;;;5074909;28;20032;-72
2022/05/27 03:46:04;;;;;;;16.25;5.32;;;17.20;99.90;;;;;;5074298;28;20078;-73
2022/05/27 03:48:33;;;;;;;14.38;5.88;;;17.20;99.90;;;;;;5073806;28;20082;-72
2022/05/27 03:51:13;;;;;;;13.00;5.20;;;17.20;99.90;;;;;;5075749;28;20029;-71
2022/05/27 03:56:23;;;;;;;17.88;7.00;;;17.30;99.90;;;;;;5064948;28;20121;-72
2022/05/27 03:58:49;;;;;;;18.20;6.88;;;17.10;99.90;;;;;;5076966;28;20052;-71
2022/05/27 04:01:14;;;;;;;12.63;6.45;;;17.20;99.90;;;;;;5077413;28;20028;-70
2022/05/27 04:03:40;;;;;;;12.70;6.65;;;17.10;99.90;;;;;;5072158;28;20442;-72
2022/05/27 04:06:05;;;;;;;12.98;6.53;;;17.10;99.90;;;;;;5076524;28;20025;-72
2022/05/27 04:08:31;;;;;;;13.90;6.85;;;17.00;99.90;;;;;;5077840;28;20477;-71
2022/05/27 04:10:56;;;;;;;13.02;6.22;;;16.90;99.90;;;;;;5072473;28;20377;-72
2022/05/27 04:13:22;;;;;;;14.25;7.30;;;17.00;99.90;;;;;;5076844;28;20024;-72
2022/05/27 04:15:48;;;;;;;11.65;7.47;;;17.00;99.90;;;;;;5077518;28;20028;-73
2022/05/27 04:18:13;;;;;;;11.15;7.15;;;17.10;99.90;;;;;;5076577;28;20064;-72
2022/05/27 04:20:39;;;;;;;14.65;7.68;;;17.10;99.90;;;;;;5078087;28;20186;-72
2022/05/27 04:23:04;;;;;;;13.55;8.02;;;17.00;99.90;;;;;;5076169;28;20077;-72
2022/05/27 04:25:30;;;;;;;10.73;6.72;;;17.10;99.90;;;;;;5076784;28;20052;-72
2022/05/27 04:27:56;;;;;;;11.45;6.78;;;17.10;99.90;;;;;;5074839;28;20111;-72
2022/05/27 04:30:23;;;;;;;12.57;6.88;;;17.00;99.90;;;;;;5076076;28;20024;-72
2022/05/27 04:32:49;;;;;;;11.43;6.45;;;17.10;99.90;;;;;;5070411;28;20056;-72
2022/05/27 04:35:14;;;;;;;9.25;6.78;;;17.00;99.90;;;;;;5077570;28;20052;-72
2022/05/27 04:37:40;;;;;;;9.35;7.25;;;17.00;99.90;;;;;;5076942;28;20405;-72
2022/05/27 04:40:06;;;;;;;10.25;6.20;;;17.10;99.90;;;;;;5076274;28;20025;-69
2022/05/27 04:42:32;;;;;;;10.23;7.43;;;17.00;99.90;;;;;;5077233;28;20029;-71
2022/05/27 04:44:57;;;;;;;8.65;6.00;;;17.00;99.90;;;;;;5069682;28;20051;-72
2022/05/27 04:47:23;;;;;;;7.18;5.95;;;17.00;99.90;;;;;;5076390;28;20037;-72
2022/05/27 04:49:51;;;;;;;6.85;5.43;;;17.00;99.90;;;;;;5076963;28;20024;-71
2022/05/27 04:52:31;;;;;;;8.73;5.55;;;17.00;99.90;;;;;;5076443;28;20500;-72
2022/05/27 04:54:59;;;;;;;8.52;5.88;;;17.00;99.90;;;;;;5073705;28;20446;-72
2022/05/27 04:57:32;;;;;;;8.02;5.80;;;17.00;99.90;;;;;;5077065;28;20040;-72
2022/05/27 04:59:59;;;;;;;7.20;6.10;;;16.90;99.90;;;;;;5071635;28;20025;-72
2022/05/27 05:02:25;;;;;;;7.03;6.32;;;17.00;99.90;;;;;;5076079;28;20040;-71
2022/05/27 05:04:52;;;;;;;7.15;6.25;;;17.00;99.90;;;;;;5069749;28;20029;-72
2022/05/27 05:07:21;;;;;;;7.88;5.78;;;17.10;99.90;;;;;;5071497;28;20489;-73
2022/05/27 05:09:47;;;;;;;7.43;6.28;;;17.00;99.90;;;;;;5072866;28;20037;-73
2022/05/27 05:12:13;;;;;;;6.80;5.55;;;17.00;99.90;;;;;;5076052;28;20090;-72
2022/05/27 05:14:40;;;;;;;7.20;5.70;;;17.00;99.90;;;;;;5076523;28;20020;-71
2022/05/27 05:17:07;;;;;;;7.45;6.15;;;17.10;99.90;;;;;;5074755;28;20443;-72
2022/05/27 05:19:33;;;;;;;7.10;5.80;;;17.10;99.90;;;;;;5076374;28;20036;-72
2022/05/27 05:21:59;;;;;;;6.95;5.55;;;17.10;99.90;;;;;;5075315;28;20025;-71
2022/05/27 05:24:25;;;;;;;7.57;6.75;;;17.10;99.90;;;;;;5068320;28;20488;-72
2022/05/27 05:26:50;;;;;;;9.55;6.50;;;17.20;99.90;;;;;;5074218;28;20040;-73
2022/05/27 05:29:16;;;;;;;6.93;6.05;;;17.20;99.90;;;;;;5074365;28;20032;-73
2022/05/27 05:31:42;;;;;;;8.98;6.07;;;17.30;99.90;;;;;;5073215;28;20279;-72
2022/05/27 05:34:08;;;;;;;8.63;5.97;;;17.20;99.90;;;;;;5060798;28;20485;-72
2022/05/27 05:36:34;;;;;;;6.85;6.15;;;17.20;99.90;;;;;;5061674;28;20044;-71
2022/05/27 05:39:01;;;;;;;7.72;5.88;;;17.20;99.90;;;;;;5074026;28;20043;-71
2022/05/27 05:41:36;;;;;;;8.77;6.95;;;17.20;99.90;;;;;;5068948;28;20029;-71
2022/05/27 05:44:02;;;;;;;8.93;6.90;;;17.20;99.90;;;;;;5053952;28;20040;-71
2022/05/27 05:46:30;;;;;;;10.98;8.13;;;17.30;99.90;;;;;;5053921;28;20489;-71
2022/05/27 05:48:56;;;;;;;9.35;7.75;;;17.30;99.90;;;;;;5053638;28;20252;-71
2022/05/27 05:51:22;;;;;;;12.45;8.73;;;17.30;99.90;;;;;;5053358;28;20560;-72
2022/05/27 05:53:47;;;;;;;11.80;8.68;;;17.30;99.90;;;;;;5053843;28;20044;-71
2022/05/27 05:56:13;;;;;;;11.00;8.45;;;17.20;99.90;;;;;;5059697;28;20407;-71
2022/05/27 05:58:39;;;;;;;13.73;9.75;;;17.20;99.90;;;;;;5073981;28;20484;-72
2022/05/27 06:01:05;;;;;;;12.15;9.57;;;17.20;99.90;;;;;;5088884;28;20036;-71
2022/05/27 06:03:30;;;;;;;13.15;9.55;;;17.20;99.90;;;;;;5065209;28;20029;-72
2022/05/27 06:05:56;;;;;;;12.05;9.30;;;17.30;99.90;;;;;;5053203;28;20116;-72
2022/05/27 06:08:22;;;;;;;11.60;10.18;;;17.40;99.90;;;;;;5053078;28;20117;-71
2022/05/27 06:10:48;;;;;;;18.38;11.15;;;17.40;99.90;;;;;;5068438;28;20020;-71
2022/05/27 06:13:15;;;;;;;15.15;10.10;;;17.30;99.90;;;;;;5073156;28;20032;-71
2022/05/27 06:15:41;;;;;;;15.95;11.30;;;17.40;99.90;;;;;;5073461;28;20036;-71
2022/05/27 06:18:07;;;;;;;14.75;11.05;;;17.50;99.90;;;;;;5055097;28;20108;-71
2022/05/27 06:20:35;;;;;;;12.93;11.23;;;17.50;99.90;;;;;;5052829;28;20029;-71
2022/05/27 06:23:03;;;;;;;15.93;11.20;;;17.60;99.90;;;;;;5053016;28;20037;-71
2022/05/27 06:25:28;;;;;;;16.52;12.18;;;17.60;99.90;;;;;;5064484;28;20020;-71
2022/05/27 06:34:23;;;;;;;16.90;11.40;;;17.70;99.90;;;;;;5063857;28;20125;-71
2022/05/27 06:36:07;;;;;;;16.15;11.85;;;17.80;99.90;;;;;;5053279;28;20543;-71
2022/05/27 06:38:35;;;;;;;17.48;10.57;;;17.90;99.90;;;;;;5053077;28;20040;-71
2022/05/27 06:41:02;;;;;;;19.73;10.75;;;17.90;99.90;;;;;;5053081;28;20120;-71
2022/05/27 06:43:28;;;;;;;18.10;9.98;;;18.00;99.90;;;;;;5052889;28;20041;-71
2022/05/27 06:45:54;;;;;;;15.68;9.38;;;17.90;99.90;;;;;;5053090;28;20421;-71
2022/05/27 06:48:20;;;;;;;13.70;9.23;;;18.00;99.90;;;;;;5052767;28;20095;-71
2022/05/27 06:50:45;;;;;;;17.98;9.30;;;18.00;99.90;;;;;;5052640;28;20033;-71
2022/05/27 06:53:11;;;;;;;14.00;8.23;;;18.00;99.90;;;;;;5053123;28;20037;-72
2022/05/27 06:55:37;;;;;;;15.23;8.48;;;18.00;99.90;;;;;;5059605;28;20041;-71
2022/05/27 06:58:03;;;;;;;16.25;8.55;;;18.10;99.90;;;;;;5073015;28;20060;-71
2022/05/27 07:00:28;;;;;;;13.80;7.90;;;18.20;99.90;;;;;;5072818;28;20385;-71
2022/05/27 07:02:54;;;;;;;14.70;8.20;;;18.20;99.90;;;;;;5072962;28;20031;-72
2022/05/27 07:05:20;;;;;;;14.65;7.80;;;18.20;99.90;;;;;;5072161;28;20154;-71
2022/05/27 07:07:45;;;;;;;13.35;6.32;;;18.20;99.90;;;;;;5056019;28;20041;-71
2022/05/27 07:10:11;;;;;;;15.98;8.68;;;18.10;99.90;;;;;;5052883;28;20022;-71
2022/05/27 07:12:37;;;;;;;13.82;7.10;;;18.10;99.90;;;;;;5052734;28;20448;-71
2022/05/27 07:15:03;;;;;;;13.55;7.57;;;18.10;99.90;;;;;;5052838;28;20396;-72
2022/05/27 07:17:29;;;;;;;18.00;6.95;;;18.20;99.90;;;;;;5053016;28;20021;-72
2022/05/27 07:19:54;;;;;;;14.00;7.03;;;18.40;99.90;;;;;;5051246;28;20458;-71
2022/05/27 07:22:20;;;;;;;13.90;6.05;;;18.50;99.90;;;;;;5071440;28;20036;-71
2022/05/27 07:24:46;;;;;;;11.73;5.43;;;18.60;99.90;;;;;;5066305;28;20443;-72
2022/05/27 07:27:11;;;;;;;10.20;5.35;;;18.70;99.90;;;;;;5052468;28;20120;-72
2022/05/27 07:29:37;;;;;;;12.43;4.85;;;18.70;99.90;;;;;;5052611;28;20469;-71
2022/05/27 07:32:04;;;;;;;12.13;5.03;;;18.50;99.90;;;;;;5052685;28;20029;-71
2022/05/27 07:34:30;;;;;;;14.02;4.35;;;18.60;99.90;;;;;;5052237;28;20108;-71
2022/05/27 07:36:56;;;;;;;12.10;4.40;;;18.80;99.90;;;;;;5052670;28;20064;-72
2022/05/27 07:39:21;;;;;;;6.90;3.80;;;18.80;99.90;;;;;;5052612;28;20029;-71
2022/05/27 07:41:47;;;;;;;7.93;4.03;;;18.80;99.90;;;;;;5067383;28;20033;-71
2022/05/27 07:44:13;;;;;;;5.53;3.92;;;18.90;99.90;;;;;;5072703;28;20021;-72
2022/05/27 07:46:39;;;;;;;9.73;3.67;;;19.00;99.90;;;;;;5072282;28;20496;-71
2022/05/27 07:49:07;;;;;;;8.68;3.03;;;18.90;99.90;;;;;;5072403;28;20037;-72
2022/05/27 07:51:32;;;;;;;8.10;3.10;;;19.10;99.90;;;;;;5071169;28;20037;-71
2022/05/27 07:53:58;;;;;;;9.07;3.25;;;19.20;99.90;;;;;;5072468;28;20025;-71
2022/05/27 07:56:24;;;;;;;10.40;3.55;;;19.20;99.90;;;;;;5071623;28;20362;-71
2022/05/27 07:58:49;;;;;;;9.07;3.20;;;19.40;99.90;;;;;;5072424;28;20199;-72
2022/05/27 08:01:15;;;;;;;7.63;3.67;;;19.60;99.90;;;;;;5058199;28;20021;-71
2022/05/27 08:03:41;;;;;;;9.27;3.35;;;19.60;99.90;;;;;;5055666;28;20020;-71
2022/05/27 08:06:07;;;;;;;11.75;3.28;;;19.70;99.90;;;;;;5055267;28;20035;-71
2022/05/27 08:08:33;;;;;;;6.55;3.63;;;19.80;99.90;;;;;;5054721;28;20033;-72
2022/05/27 08:10:58;;;;;;;11.35;3.20;;;20.00;99.90;;;;;;5054347;28;20021;-71
2022/05/27 08:13:25;;;;;;;10.65;3.58;;;19.80;99.90;;;;;;5055490;28;20545;-71
2022/05/27 08:15:52;;;;;;;6.10;3.10;;;19.80;99.90;;;;;;5055179;28;20420;-70
2022/05/27 08:18:18;;;;;;;6.82;2.90;;;19.80;99.90;;;;;;5057132;28;20148;-71
2022/05/27 08:20:44;;;;;;;9.57;3.38;;;19.90;99.90;;;;;;5065149;28;20027;-72
2022/05/27 08:23:10;;;;;;;5.47;2.90;;;20.10;99.90;;;;;;5064147;28;20248;-72
2022/05/27 08:25:37;;;;;;;11.45;3.53;;;20.20;99.90;;;;;;5065245;28;20017;-70
2022/05/27 08:28:04;;;;;;;9.57;3.47;;;20.10;99.90;;;;;;5054948;28;20037;-71
2022/05/27 08:30:33;;;;;;;10.40;3.17;;;20.20;99.90;;;;;;5055021;28;20060;-71
2022/05/27 08:33:00;;;;;;;4.47;2.58;;;20.20;99.90;;;;;;5054837;28;20082;-71
2022/05/27 08:38:18;;;;;;;4.65;2.70;;;20.50;99.90;;;;;;5068187;28;20393;-71
2022/05/27 08:41:03;;;;;;;4.70;3.33;;;20.50;99.90;;;;;;5061644;28;20078;-71
2022/05/27 08:43:46;;;;;;;8.80;2.90;;;20.60;99.90;;;;;;5059292;28;20074;-70
2022/05/27 08:46:29;;;;;;;8.32;3.08;;;20.50;99.90;;;;;;5065388;28;20028;-70
2022/05/27 08:49:00;;;;;;;5.50;2.88;;;20.50;99.90;;;;;;5071783;28;20107;-70
2022/05/27 08:51:41;;;;;;;4.63;2.10;;;20.60;99.90;;;;;;5054957;28;20028;-70
2022/05/27 08:54:19;;;;;;;5.47;2.47;;;20.50;99.90;;;;;;5055136;28;20428;-70
2022/05/27 08:59:43;;;;;;;4.82;2.40;;;20.40;99.90;;;;;;5054773;28;20032;-70
2022/05/27 09:02:36;;;;;;;5.85;2.65;;;20.70;99.90;;;;;;5056795;28;20032;-70
2022/05/27 09:05:04;;;;;;;4.93;2.38;;;20.90;99.90;;;;;;5068397;28;20064;-70
2022/05/27 09:07:55;;;;;;;3.17;2.15;;;21.00;99.90;;;;;;5072630;28;20041;-71
2022/05/27 09:10:53;;;;;;;6.97;2.95;;;21.20;99.90;;;;;;5071307;28;20047;-70
2022/05/27 09:13:21;;;;;;;5.68;2.60;;;21.30;99.90;;;;;;5073569;28;20060;-70
2022/05/27 09:15:57;;;;;;;8.13;2.55;;;21.50;99.90;;;;;;5073791;28;20040;-70
2022/05/27 09:18:46;;;;;;;5.95;2.28;;;21.70;99.90;;;;;;5073597;28;20025;-71
2022/05/27 09:21:42;;;;;;;7.25;2.63;;;21.80;99.90;;;;;;5059623;28;20084;-70
2022/05/27 09:24:30;;;;;;;5.18;2.40;;;21.90;99.90;;;;;;5061366;28;20025;-70
2022/05/27 09:27:02;;;;;;;4.82;2.83;;;21.80;99.90;;;;;;5064200;28;20037;-70
2022/05/27 09:29:37;;;;;;;6.97;2.92;;;21.80;99.90;;;;;;5054189;28;20124;-70
2022/05/27 09:32:25;;;;;;;5.60;2.33;;;21.70;99.90;;;;;;5054998;28;20036;-70
2022/05/27 09:34:53;;;;;;;6.00;3.13;;;21.60;99.90;;;;;;5054074;28;20114;-70
2022/05/27 09:37:26;;;;;;;5.07;2.47;;;21.40;99.90;;;;;;5062164;28;20036;-70
2022/05/27 09:39:53;;;;;;;2.88;2.40;;;21.60;99.90;;;;;;5073715;28;20031;-70
2022/05/27 09:42:25;;;;;;;5.15;2.97;;;21.90;99.90;;;;;;5071952;28;20111;-70
2022/05/27 09:44:54;;;;;;;6.00;3.10;;;22.10;99.90;;;;;;5060608;28;20037;-70
2022/05/27 09:47:21;;;;;;;6.13;2.70;;;22.10;99.90;;;;;;5053169;28;20044;-70
2022/05/27 09:49:55;;;;;;;7.30;2.63;;;22.20;99.90;;;;;;5054031;28;20083;-70
2022/05/27 09:52:24;;;;;;;8.10;2.65;;;21.70;99.90;;;;;;5053415;28;20040;-70
2022/05/27 09:55:01;;;;;;;8.20;2.60;;;21.50;99.90;;;;;;5063310;28;20082;-70
2022/05/27 09:57:29;;;;;;;7.30;2.95;;;21.20;99.90;;;;;;5073855;28;20082;-70
2022/05/27 10:00:02;;;;;;;7.60;2.83;;;21.40;99.90;;;;;;5073251;28;20021;-70
2022/05/27 10:02:38;;;;;;;7.55;2.72;;;21.70;99.90;;;;;;5073381;28;20372;-70
2022/05/27 10:05:12;;;;;;;7.03;2.42;;;21.90;99.90;;;;;;5073566;28;20036;-70
2022/05/27 10:07:50;;;;;;;6.90;2.92;;;22.20;99.90;;;;;;5072960;28;20021;-69
2022/05/27 10:10:21;;;;;;;5.68;2.33;;;22.30;99.90;;;;;;5072363;28;20039;-71
2022/05/27 10:12:47;;;;;;;9.02;3.15;;;22.50;99.80;;;;;;5073053;28;20044;-70
2022/05/27 10:15:35;;;;;;;8.35;2.83;;;22.20;99.20;;;;;;5072669;28;20061;-70
2022/05/27 10:18:20;;;;;;;8.55;2.47;;;22.20;99.10;;;;;;5073469;28;20036;-70
2022/05/27 10:21:16;;;;;;;6.25;2.67;;;22.40;99.90;;;;;;5073337;28;20033;-70
2022/05/27 10:23:45;;;;;;;10.23;2.20;;;22.60;97.70;;;;;;5069703;28;20072;-70
2022/05/27 10:26:35;;;;;;;11.07;2.83;;;22.50;98.20;;;;;;5073352;28;20045;-70
2022/05/27 10:29:11;;;;;;;7.50;2.83;;;22.20;98.20;;;;;;5073257;28;20067;-70
2022/05/27 10:31:37;;;;;;;6.22;2.45;;;21.80;99.50;;;;;;5073104;28;20111;-71
2022/05/27 10:34:03;;;;;;;7.53;2.63;;;21.80;98.80;;;;;;5071473;28;20485;-71
2022/05/27 10:36:44;;;;;;;9.85;2.78;;;22.10;98.90;;;;;;5072697;28;20564;-70
2022/05/27 10:39:30;;;;;;;7.93;2.70;;;22.50;99.90;;;;;;5073299;28;20033;-71
2022/05/27 10:42:24;;;;;;;8.32;2.75;;;22.60;98.90;;;;;;5072311;28;20214;-71
2022/05/27 10:45:38;;;;;;;8.27;3.20;;;22.80;99.10;;;;;;5073041;28;20032;-71
2022/05/27 10:48:04;;;;;;;8.02;3.05;;;22.90;98.90;;;;;;5049379;28;20051;-71
2022/05/27 10:50:39;;;;;;;4.32;2.28;;;23.10;97.40;;;;;;5063234;28;20036;-72
2022/05/27 10:53:38;;;;;;;9.43;2.80;;;23.20;96.10;;;;;;5086188;28;20074;-73
2022/05/27 10:56:24;;;;;;;7.32;2.10;;;23.30;96.50;;;;;;5071905;28;20060;-73
2022/05/27 11:02:10;;;;;;;8.30;2.45;;;23.60;95.90;;;;;;5072731;28;20102;-72
2022/05/27 11:04:57;;;;;;;8.65;2.40;;;23.80;96.00;;;;;;5071675;28;20028;-73
2022/05/27 11:07:47;;;;;;;8.65;2.80;;;23.80;94.10;;;;;;5071745;28;20063;-73
2022/05/27 11:10:29;;;;;;;8.75;2.42;;;23.40;96.10;;;;;;5072210;28;20044;-73
2022/05/27 11:16:17;;;;;;;6.75;2.42;;;23.30;93.70;;;;;;5071863;28;20555;-75
2022/05/27 11:19:00;;;;;;;9.18;2.47;;;23.20;94.20;;;;;;5072900;28;20421;-73
2022/05/27 11:22:03;;;;;;;5.57;2.05;;;23.20;92.20;;;;;;5072794;28;20043;-74
2022/05/27 11:24:29;;;;;;;3.92;2.20;;;23.70;92.90;;;;;;5069487;28;20115;-74
2022/05/27 11:27:11;;;;;;;6.57;1.98;;;23.70;92.50;;;;;;5058209;28;20048;-74
2022/05/27 11:30:26;;;;;;;8.60;2.95;;;24.00;94.00;;;;;;5071969;28;20029;-72
2022/05/27 11:32:52;;;;;;;6.25;2.30;;;24.20;95.40;;;;;;5070928;28;20028;-72
2022/05/27 11:35:33;;;;;;;6.93;2.75;;;24.00;92.90;;;;;;5074011;28;20056;-73
2022/05/27 11:38:15;;;;;;;7.47;2.85;;;24.10;92.60;;;;;;5076582;28;20031;-73
2022/05/27 11:40:47;;;;;;;8.38;2.60;;;24.00;93.30;;;;;;5091447;28;20024;-73
2022/05/27 11:43:37;;;;;;;7.07;2.75;;;24.00;92.60;;;;;;5072275;28;20107;-73
2022/05/27 11:46:31;;;;;;;5.93;2.30;;;23.80;93.90;;;;;;5055734;28;20374;-73
2022/05/27 11:49:10;;;;;;;7.18;2.53;;;23.40;93.30;;;;;;5055326;28;20044;-73
2022/05/27 11:52:12;;;;;;;8.73;2.38;;;23.50;93.90;;;;;;5055627;28;20032;-73
2022/05/27 11:55:06;;;;;;;9.05;2.10;;;23.40;92.00;;;;;;5071890;28;20131;-72
2022/05/27 11:57:43;;;;;;;5.25;2.13;;;23.60;93.30;;;;;;5055117;28;20088;-72
2022/05/27 12:00:18;;;;;;;10.02;2.75;;;23.60;92.70;;;;;;5055185;28;20647;-71
2022/05/27 12:02:59;;;;;;;8.15;2.75;;;23.80;92.50;;;;;;5058022;28;20033;-73
2022/05/27 12:05:36;;;;;;;7.45;2.35;;;23.40;92.10;;;;;;5054919;28;20481;-73
2022/05/27 12:08:17;;;;;;;10.07;2.80;;;23.40;91.70;;;;;;5057526;28;20083;-73
2022/05/27 12:11:03;;;;;;;7.72;2.78;;;23.30;91.50;;;;;;5061425;28;20041;-73
2022/05/27 12:13:32;;;;;;;8.07;2.50;;;23.60;91.80;;;;;;5062457;28;20848;-71
2022/05/27 12:16:08;;;;;;;8.07;2.63;;;23.90;91.60;;;;;;5074596;28;20511;-72
2022/05/27 12:18:51;;;;;;;6.72;2.53;;;24.20;93.40;;;;;;5073431;28;20075;-71
2022/05/27 12:21:21;;;;;;;8.30;2.63;;;24.00;89.90;;;;;;5075299;28;20043;-71
2022/05/27 12:24:12;;;;;;;9.75;2.50;;;24.10;89.70;;;;;;5073369;28;20425;-72
2022/05/27 12:26:40;;;;;;;5.30;2.10;;;24.10;88.20;;;;;;5058973;28;20041;-72
2022/05/27 12:29:09;;;;;;;5.95;2.33;;;23.90;87.60;;;;;;5074886;28;20029;-72
2022/05/27 12:31:37;;;;;;;8.07;2.40;;;23.80;83.70;;;;;;5074849;28;20031;-73
2022/05/27 12:34:27;;;;;;;7.13;2.58;;;23.80;90.70;;;;;;5075039;28;20024;-72
2022/05/27 12:36:54;;;;;;;5.38;2.28;;;23.90;89.00;;;;;;5074643;28;20024;-72
2022/05/27 12:39:25;;;;;;;10.13;2.53;;;23.90;87.30;;;;;;5055504;28;20033;-73
2022/05/27 12:42:10;;;;;;;6.38;2.22;;;23.90;83.20;;;;;;5058124;28;20099;-73
2022/05/27 12:44:38;;;;;;;6.50;2.20;;;24.10;86.10;;;;;;5074811;28;20115;-73
2022/05/27 12:47:04;;;;;;;6.90;2.58;;;24.00;85.10;;;;;;5074718;28;20029;-73
2022/05/27 12:49:42;;;;;;;7.50;2.70;;;24.10;84.90;;;;;;5089629;28;20500;-72
2022/05/27 12:52:29;;;;;;;6.35;2.42;;;24.30;89.40;;;;;;5073386;28;20476;-73
2022/05/27 12:54:59;;;;;;;7.45;2.40;;;24.70;87.90;;;;;;5074146;28;20040;-72
2022/05/27 13:03:33;;;;;;;;;;;23.90;86.20;;;;;;5074944;28;20072;-72
2022/05/27 13:06:14;;;;;;;12.30;2.08;;;24.00;86.30;;;;;;5053830;28;19991;-71
2022/05/27 13:08:53;;;;;;;4.93;2.22;;;24.10;82.60;;;;;;5054382;28;20116;-72
2022/05/27 13:11:21;;;;;;;4.85;2.22;;;24.10;83.80;;;;;;5053270;28;20451;-73
2022/05/27 13:13:49;;;;;;;3.45;1.90;;;24.30;84.70;;;;;;5072701;28;20044;-73
2022/05/27 13:16:36;;;;;;;8.00;2.15;;;24.00;84.30;;;;;;5073190;28;20389;-72
2022/05/27 13:19:08;;;;;;;7.07;2.05;;;24.30;90.00;;;;;;5073595;28;20365;-73
2022/05/27 13:21:41;;;;;;;7.33;2.30;;;24.30;85.10;;;;;;5073226;28;20023;-71
2022/05/27 13:24:29;;;;;;;4.25;1.88;;;24.20;81.90;;;;;;5072829;28;20066;-73
2022/05/27 13:27:01;;;;;;;5.80;2.00;;;24.10;81.90;;;;;;5058398;28;20499;-74
2022/05/27 13:29:49;;;;;;;7.97;2.33;;;24.10;82.80;;;;;;5054023;28;20465;-73
2022/05/27 13:32:29;;;;;;;6.55;2.63;;;24.20;81.90;;;;;;5053867;28;20043;-74
2022/05/27 13:35:07;;;;;;;9.05;2.38;;;24.20;85.80;;;;;;5053432;28;20017;-72
2022/05/27 13:37:47;;;;;;;6.20;2.15;;;24.10;81.80;;;;;;5052565;28;20485;-74
2022/05/27 13:40:28;;;;;;;9.25;2.83;;;24.00;83.00;;;;;;5053895;28;20032;-72
2022/05/27 13:42:56;;;;;;;8.45;2.85;;;24.00;88.90;;;;;;5065292;28;20059;-71
2022/05/27 13:45:21;;;;;;;11.25;2.30;;;24.00;87.20;;;;;;5073276;28;20020;-71
2022/05/27 13:47:56;;;;;;;6.80;2.20;;;24.10;86.50;;;;;;5072357;28;20048;-70